createdAt,value
2023-04-14T00:01:35.618Z,16.30
2023-04-14T00:04:37.792Z,16.35
2023-04-14T00:07:40.011Z,16.21
2023-04-14T00:10:42.230Z,16.25
2023-04-14T00:13:44.324Z,16.25
2023-04-14T00:16:47.058Z,16.18
2023-04-14T00:19:49.302Z,16.20
2023-04-14T00:22:51.930Z,16.11
2023-04-14T00:25:54.238Z,16.08
2023-04-14T00:28:56.240Z,16.04
2023-04-14T00:31:58.395Z,16.06
2023-04-14T00:35:03.499Z,16.15
2023-04-14T00:38:05.662Z,16.17
2023-04-14T00:41:07.819Z,16.17
2023-04-14T00:44:10.089Z,16.12
2023-04-14T00:47:12.566Z,16.12
2023-04-14T00:50:15.854Z,16.16
2023-04-14T00:53:18.076Z,16.27
2023-04-14T00:56:21.012Z,16.13
2023-04-14T00:59:23.666Z,16.12
2023-04-14T01:02:26.429Z,16.06
2023-04-14T01:05:28.896Z,16.09
2023-04-14T01:08:32.289Z,16.10
2023-04-14T01:11:40.894Z,16.05
2023-04-14T01:14:42.849Z,16.19
2023-04-14T01:18:06.348Z,16.18
2023-04-14T01:21:23.086Z,16.00
2023-04-14T01:24:37.920Z,15.99
2023-04-14T01:27:46.540Z,15.99
2023-04-14T01:31:17.577Z,16.06
2023-04-14T01:34:33.078Z,15.95
2023-04-14T01:37:41.694Z,16.04
2023-04-14T01:40:49.127Z,16.08
2023-04-14T01:43:55.217Z,16.00
2023-04-14T01:47:04.020Z,16.04
2023-04-14T01:50:09.122Z,15.93
2023-04-14T01:53:13.715Z,15.96
2023-04-14T01:56:17.463Z,15.90
2023-04-14T01:59:22.839Z,15.89
2023-04-14T02:02:27.206Z,15.89
2023-04-14T02:05:31.778Z,15.84
2023-04-14T02:08:35.840Z,15.83
2023-04-14T02:11:39.624Z,15.80
2023-04-14T02:14:43.570Z,15.88
2023-04-14T02:17:49.625Z,15.82
2023-04-14T02:20:54.321Z,15.74
2023-04-14T02:23:56.571Z,15.73
2023-04-14T02:27:34.051Z,15.77
2023-04-14T02:30:42.591Z,15.90
2023-04-14T02:33:53.864Z,15.96
2023-04-14T02:36:59.283Z,15.86
2023-04-14T02:40:04.946Z,15.84
2023-04-14T02:43:28.774Z,15.84
2023-04-14T02:46:36.549Z,15.85
2023-04-14T02:49:43.334Z,15.78
2023-04-14T02:52:51.457Z,15.78
2023-04-14T02:55:56.465Z,15.75
2023-04-14T02:58:59.958Z,15.70
2023-04-14T03:02:06.217Z,15.68
2023-04-14T03:05:13.163Z,15.72
2023-04-14T03:08:28.407Z,15.87
2023-04-14T03:11:33.093Z,15.77
2023-04-14T03:14:39.232Z,15.75
2023-04-14T03:17:43.823Z,15.87
2023-04-14T03:20:47.395Z,15.82
2023-04-14T03:23:52.998Z,15.86
2023-04-14T03:27:00.459Z,15.75
2023-04-14T03:30:07.499Z,15.77
2023-04-14T03:33:14.987Z,15.78
2023-04-14T03:36:20.399Z,16.14
2023-04-14T03:39:27.537Z,16.32
2023-04-14T03:42:33.172Z,16.33
2023-04-14T03:45:40.654Z,17.04
2023-04-14T03:48:46.275Z,18.53
2023-04-14T03:51:53.671Z,19.50
2023-04-14T03:55:03.673Z,19.81
2023-04-14T03:58:08.897Z,19.59
2023-04-14T04:01:12.736Z,20.68
2023-04-14T04:04:15.877Z,20.66
2023-04-14T04:07:20.988Z,20.15
2023-04-14T04:10:25.001Z,21.27
2023-04-14T04:13:28.593Z,21.49
2023-04-14T04:16:32.456Z,20.73
2023-04-14T04:19:36.510Z,20.41
2023-04-14T04:22:42.271Z,21.69
2023-04-14T04:25:45.557Z,20.52
2023-04-14T04:28:59.623Z,19.92
2023-04-14T04:32:02.765Z,21.43
2023-04-14T04:35:09.101Z,20.65
2023-04-14T04:38:13.583Z,20.19
2023-04-14T04:41:33.062Z,20.17
2023-04-14T04:45:52.822Z,22.29
2023-04-14T04:48:57.653Z,22.06
2023-04-14T04:52:00.991Z,22.26
2023-04-14T04:55:04.018Z,22.37
2023-04-14T04:58:06.225Z,22.36
2023-04-14T05:01:11.114Z,22.28
2023-04-14T05:04:13.483Z,22.10
2023-04-14T05:07:20.033Z,20.88
2023-04-14T05:10:23.005Z,20.02
2023-04-14T05:13:28.318Z,19.59
2023-04-14T05:16:30.498Z,19.34
2023-04-14T05:19:32.690Z,19.13
2023-04-14T05:22:34.869Z,18.94
2023-04-14T05:25:36.966Z,18.87
2023-04-14T05:28:40.059Z,18.80
2023-04-14T05:31:42.239Z,18.74
2023-04-14T05:34:44.493Z,18.67
2023-04-14T05:37:46.649Z,18.50
2023-04-14T05:40:49.209Z,18.47
2023-04-14T05:43:51.282Z,18.35
2023-04-14T05:46:53.332Z,18.36
2023-04-14T05:49:55.425Z,18.27
2023-04-14T05:52:57.937Z,18.19
2023-04-14T05:56:02.236Z,18.14
2023-04-14T05:59:04.415Z,18.32
2023-04-14T06:02:07.631Z,18.42
2023-04-14T06:05:10.482Z,18.35
2023-04-14T06:08:12.719Z,18.25
2023-04-14T06:11:14.782Z,18.19
2023-04-14T06:14:16.776Z,18.25
2023-04-14T06:17:19.726Z,18.30
2023-04-14T06:20:22.094Z,18.22
2023-04-14T06:23:24.819Z,18.09
2023-04-14T06:26:31.170Z,18.11
2023-04-14T06:29:33.242Z,18.19
2023-04-14T06:32:40.591Z,19.85
2023-04-14T06:35:50.916Z,22.14
2023-04-14T06:39:02.817Z,23.45
2023-04-14T06:42:05.181Z,24.24
2023-04-14T06:45:08.242Z,23.17
2023-04-14T06:48:11.828Z,22.38
2023-04-14T06:51:14.478Z,22.06
2023-04-14T06:54:17.046Z,20.91
2023-04-14T06:57:19.120Z,19.93
2023-04-14T07:00:21.502Z,19.52
2023-04-14T07:03:24.124Z,19.27
2023-04-14T07:06:26.880Z,19.07
2023-04-14T07:09:33.273Z,19.05
2023-04-14T07:12:35.434Z,19.01
2023-04-14T07:15:40.723Z,19.05
2023-04-14T07:18:44.800Z,19.01
2023-04-14T07:21:47.409Z,19.28
2023-04-14T07:24:49.548Z,19.79
2023-04-14T07:28:02.665Z,20.39
2023-04-14T07:31:13.619Z,20.89
2023-04-14T07:34:15.827Z,21.25
2023-04-14T07:37:19.958Z,21.33
2023-04-14T07:40:25.739Z,21.11
2023-04-14T07:43:28.022Z,21.07
2023-04-14T07:46:36.846Z,21.14
2023-04-14T07:53:12.066Z,21.36
2023-04-14T07:56:16.400Z,21.10
2023-04-14T07:59:18.666Z,21.15
2023-04-14T08:02:23.842Z,21.46
2023-04-14T08:05:52.330Z,21.85
2023-04-14T08:08:56.996Z,22.03
2023-04-14T08:11:59.062Z,22.40
2023-04-14T08:15:03.400Z,22.57
2023-04-14T08:18:08.827Z,22.64
2023-04-14T08:21:16.643Z,22.66
2023-04-14T08:24:19.519Z,22.68
2023-04-14T08:27:42.384Z,22.46
2023-04-14T08:37:37.491Z,22.29
2023-04-14T08:57:00.508Z,21.84
2023-04-14T09:00:05.209Z,21.82
2023-04-14T09:03:09.565Z,21.94
2023-04-14T09:06:15.295Z,22.06
2023-04-14T09:09:19.586Z,22.16
2023-04-14T09:12:30.908Z,22.12
2023-04-14T09:15:34.930Z,22.17
2023-04-14T09:18:37.412Z,22.14
2023-04-14T09:21:52.731Z,21.89
2023-04-14T09:24:57.478Z,21.90
2023-04-14T09:28:00.249Z,22.21
2023-04-14T09:31:03.133Z,22.33
2023-04-14T09:34:14.987Z,22.53
2023-04-14T09:37:17.993Z,22.83
2023-04-14T09:40:33.245Z,22.83
2023-04-14T09:43:36.934Z,22.97
2023-04-14T09:47:06.529Z,23.53
2023-04-14T09:50:08.721Z,22.92
2023-04-14T09:53:11.106Z,22.99
2023-04-14T09:56:14.257Z,23.13
2023-04-14T09:59:31.471Z,23.10
2023-04-14T10:03:16.319Z,23.02
2023-04-14T10:06:48.859Z,23.10
2023-04-14T10:09:51.168Z,23.03
2023-04-14T10:13:21.659Z,22.99
2023-04-14T10:16:26.570Z,23.08
2023-04-14T10:19:30.205Z,22.86
2023-04-14T10:22:36.367Z,22.67
2023-04-14T10:25:38.752Z,22.66
2023-04-14T10:28:47.093Z,22.80
2023-04-14T10:31:55.110Z,22.84
2023-04-14T10:35:10.310Z,22.78
2023-04-14T10:38:12.825Z,22.71
2023-04-14T10:41:15.341Z,22.65
2023-04-14T10:44:30.001Z,22.64
2023-04-14T10:47:35.597Z,22.60
2023-04-14T10:50:49.101Z,22.34
2023-04-14T10:53:55.832Z,22.28
2023-04-14T10:57:14.867Z,22.26
2023-04-14T11:00:24.410Z,22.34
2023-04-14T11:03:34.547Z,22.61
2023-04-14T11:06:49.036Z,22.77
2023-04-14T11:09:51.468Z,22.87
2023-04-14T11:13:08.549Z,22.86
2023-04-14T11:16:33.353Z,23.04
2023-04-14T11:19:40.251Z,23.28
2023-04-14T11:22:47.629Z,23.36
2023-04-14T11:25:51.661Z,23.38
2023-04-14T11:29:07.519Z,23.29
2023-04-14T11:32:11.944Z,23.26
2023-04-14T11:35:17.055Z,23.25
2023-04-14T11:38:19.501Z,23.29
2023-04-14T11:41:22.378Z,23.34
2023-04-14T11:44:30.164Z,23.34
2023-04-14T11:48:03.499Z,23.31
2023-04-14T11:51:08.295Z,23.24
2023-04-14T11:54:14.654Z,23.13
2023-04-14T11:57:17.719Z,23.13
2023-04-14T12:00:20.097Z,23.11
2023-04-14T12:03:25.984Z,23.06
2023-04-14T12:06:37.624Z,22.95
2023-04-14T12:09:45.881Z,23.11
2023-04-14T12:12:47.957Z,22.77
2023-04-14T12:15:50.508Z,22.64
2023-04-14T12:18:52.625Z,22.81
2023-04-14T12:21:54.830Z,22.78
2023-04-14T12:24:57.728Z,22.93
2023-04-14T12:28:02.664Z,23.03
2023-04-14T12:31:05.171Z,23.12
2023-04-14T12:34:07.317Z,23.04
2023-04-14T12:37:13.516Z,22.92
2023-04-14T12:40:16.431Z,22.96
2023-04-14T12:43:28.201Z,23.04
2023-04-14T12:46:32.767Z,23.12
2023-04-14T12:49:38.853Z,22.64
2023-04-14T12:52:41.402Z,22.59
2023-04-14T12:55:43.499Z,22.73
2023-04-14T12:58:47.385Z,22.92
2023-04-14T13:01:49.681Z,23.02
2023-04-14T13:04:51.938Z,23.29
2023-04-14T13:07:54.922Z,23.34
2023-04-14T13:10:57.630Z,23.24
2023-04-14T13:14:00.179Z,23.24
2023-04-14T13:17:03.606Z,23.05
2023-04-14T13:20:06.329Z,22.98
2023-04-14T13:23:08.449Z,23.04
2023-04-14T13:26:10.668Z,23.33
2023-04-14T13:29:16.059Z,23.57
2023-04-14T13:32:18.635Z,23.35
2023-04-14T13:35:20.778Z,23.45
2023-04-14T13:38:23.105Z,23.38
2023-04-14T13:41:26.793Z,23.43
2023-04-14T13:44:30.983Z,23.40
2023-04-14T13:47:33.163Z,23.26
2023-04-14T13:50:35.346Z,23.03
2023-04-14T13:53:37.798Z,23.13
2023-04-14T13:56:39.812Z,23.14
2023-04-14T13:59:42.521Z,23.49
2023-04-14T14:02:45.196Z,23.46
2023-04-14T14:05:48.096Z,22.94
2023-04-14T14:09:04.165Z,23.07
2023-04-14T14:12:11.511Z,22.58
2023-04-14T14:15:14.033Z,22.40
2023-04-14T14:18:18.440Z,22.29
2023-04-14T14:21:20.582Z,22.33
2023-04-14T14:24:25.487Z,22.36
2023-04-14T14:27:27.817Z,22.59
2023-04-14T14:30:30.092Z,23.05
2023-04-14T14:33:35.560Z,23.69
2023-04-14T14:36:38.925Z,23.71
2023-04-14T14:39:41.290Z,23.63
2023-04-14T14:42:47.113Z,23.55
2023-04-14T14:45:50.264Z,23.55
2023-04-14T14:48:52.811Z,23.53
2023-04-14T14:51:55.612Z,23.55
2023-04-14T14:54:59.334Z,23.59
2023-04-14T14:58:01.825Z,23.56
2023-04-14T15:01:06.103Z,23.55
2023-04-14T15:04:09.669Z,23.50
2023-04-14T15:07:12.662Z,23.37
2023-04-14T15:10:15.680Z,23.34
2023-04-14T15:13:18.147Z,23.25
2023-04-14T15:16:20.234Z,23.14
2023-04-14T15:19:23.930Z,23.05
2023-04-14T15:22:26.191Z,23.02
2023-04-14T15:25:28.357Z,22.92
2023-04-14T15:28:30.774Z,22.93
2023-04-14T15:31:33.375Z,22.85
2023-04-14T15:34:43.536Z,22.74
2023-04-14T15:37:48.362Z,22.61
2023-04-14T15:40:50.741Z,22.59
2023-04-14T15:43:52.965Z,22.57
2023-04-14T15:46:59.695Z,22.41
2023-04-14T15:50:18.957Z,22.37
2023-04-14T15:53:31.976Z,22.44
2023-04-14T15:56:35.853Z,22.62
2023-04-14T15:59:40.290Z,22.88
2023-04-14T16:02:43.371Z,22.91
2023-04-14T16:05:45.958Z,22.64
2023-04-14T16:08:48.714Z,22.71
2023-04-14T16:11:51.713Z,22.82
2023-04-14T16:14:54.754Z,22.75
2023-04-14T16:17:58.277Z,22.66
2023-04-14T16:21:00.441Z,22.49
2023-04-14T16:24:04.134Z,22.47
2023-04-14T16:27:09.593Z,22.38
2023-04-14T16:30:12.340Z,22.18
2023-04-14T16:33:14.383Z,22.06
2023-04-14T16:36:17.065Z,22.02
2023-04-14T16:39:19.978Z,21.93
2023-04-14T16:42:24.680Z,21.87
2023-04-14T16:45:27.243Z,21.80
2023-04-14T16:48:31.475Z,21.82
2023-04-14T16:51:33.861Z,21.78
2023-04-14T16:54:38.294Z,21.74
2023-04-14T16:57:40.830Z,21.80
2023-04-14T17:00:43.286Z,21.75
2023-04-14T17:03:45.666Z,21.69
2023-04-14T17:06:47.927Z,21.63
2023-04-14T17:09:51.672Z,21.52
2023-04-14T17:12:55.571Z,21.48
2023-04-14T17:16:06.153Z,21.51
2023-04-14T17:19:10.805Z,21.63
2023-04-14T17:22:13.640Z,21.63
2023-04-14T17:25:19.431Z,21.36
2023-04-14T17:28:22.873Z,21.44
2023-04-14T17:31:27.917Z,21.46
2023-04-14T17:34:30.796Z,21.47
2023-04-14T17:37:33.297Z,21.48
2023-04-14T17:40:37.267Z,21.44
2023-04-14T17:43:39.766Z,21.41
2023-04-14T17:46:42.162Z,21.40
2023-04-14T17:49:44.540Z,21.36
2023-04-14T17:52:54.924Z,21.31
2023-04-14T17:55:57.895Z,21.32
2023-04-14T17:59:00.697Z,21.25
2023-04-14T18:02:02.922Z,21.25
2023-04-14T18:05:06.640Z,21.27
2023-04-14T18:08:08.882Z,21.23
2023-04-14T18:11:12.329Z,21.19
2023-04-14T18:14:15.501Z,21.11
2023-04-14T18:17:18.671Z,21.09
2023-04-14T18:20:25.045Z,20.95
2023-04-14T18:23:27.529Z,20.90
2023-04-14T18:26:31.315Z,20.86
2023-04-14T18:29:33.458Z,20.88
2023-04-14T18:32:35.931Z,20.82
2023-04-14T18:35:38.174Z,20.79
2023-04-14T18:38:44.225Z,20.74
2023-04-14T18:41:47.053Z,20.70
2023-04-14T18:44:49.345Z,20.69
2023-04-14T18:47:51.546Z,20.56
2023-04-14T18:51:12.638Z,20.52
2023-04-14T18:54:15.292Z,20.50
2023-04-14T18:57:18.580Z,20.42
2023-04-14T19:00:20.880Z,20.39
2023-04-14T19:03:23.879Z,20.40
2023-04-14T19:06:26.958Z,20.37
2023-04-14T19:09:29.089Z,20.30
2023-04-14T19:12:32.160Z,20.26
2023-04-14T19:15:34.717Z,20.16
2023-04-14T19:18:37.050Z,20.08
2023-04-14T19:21:39.138Z,20.16
2023-04-14T19:24:41.291Z,20.16
2023-04-14T19:27:43.996Z,20.18
2023-04-14T19:30:46.783Z,20.12
2023-04-14T19:33:49.354Z,20.08
2023-04-14T19:36:51.664Z,20.03
2023-04-14T19:39:54.160Z,19.97
2023-04-14T19:42:56.903Z,19.97
2023-04-14T19:46:09.706Z,19.95
2023-04-14T19:49:17.573Z,19.91
2023-04-14T19:52:20.414Z,19.73
2023-04-14T19:55:24.386Z,19.32
2023-04-14T19:58:28.579Z,19.20
2023-04-14T20:01:31.977Z,19.07
2023-04-14T20:04:34.952Z,19.05
2023-04-14T20:07:37.236Z,19.31
2023-04-14T20:10:40.200Z,19.66
2023-04-14T20:13:43.111Z,20.01
2023-04-14T20:16:45.370Z,20.21
2023-04-14T20:19:47.532Z,20.43
2023-04-14T20:22:49.857Z,20.99
2023-04-14T20:25:53.376Z,21.47
2023-04-14T20:28:56.146Z,21.40
2023-04-14T20:31:58.754Z,21.57
2023-04-14T20:35:00.937Z,21.76
2023-04-14T20:38:07.058Z,21.74
2023-04-14T20:41:10.316Z,21.63
2023-04-14T20:44:12.499Z,21.65
2023-04-14T20:47:15.303Z,21.61
2023-04-14T20:50:18.807Z,21.54
2023-04-14T20:53:22.886Z,21.41
2023-04-14T20:56:28.671Z,21.35
2023-04-14T20:59:30.906Z,21.21
2023-04-14T21:02:33.050Z,21.07
2023-04-14T21:05:35.761Z,20.91
2023-04-14T21:08:39.654Z,20.77
2023-04-14T21:11:42.032Z,20.71
2023-04-14T21:15:42.215Z,20.62
2023-04-14T21:18:06.311Z,20.64
2023-04-14T21:21:11.294Z,20.71
2023-04-14T21:24:13.920Z,20.76
2023-04-14T21:27:17.518Z,20.81
2023-04-14T21:30:19.734Z,20.72
2023-04-14T21:33:22.870Z,20.71
2023-04-14T21:36:25.220Z,20.70
2023-04-14T21:39:28.853Z,20.56
2023-04-14T21:42:32.133Z,20.44
2023-04-14T21:45:35.338Z,20.32
2023-04-14T21:48:37.660Z,20.24
2023-04-14T21:51:39.842Z,20.23
2023-04-14T21:54:44.437Z,20.17
2023-04-14T21:57:49.470Z,20.09
2023-04-14T22:00:55.902Z,20.06
2023-04-14T22:03:59.027Z,20.06
2023-04-14T22:07:02.585Z,19.96
2023-04-14T22:10:05.228Z,19.84
2023-04-14T22:13:07.247Z,19.79
2023-04-14T22:16:12.348Z,19.78
2023-04-14T22:19:14.850Z,19.79
2023-04-14T22:22:17.513Z,19.65
2023-04-14T22:25:20.913Z,19.60
2023-04-14T22:28:23.158Z,19.47
2023-04-14T22:31:28.263Z,19.42
2023-04-14T22:34:30.770Z,19.37
2023-04-14T22:37:33.268Z,19.26
2023-04-14T22:40:37.119Z,19.15
2023-04-14T22:43:39.398Z,19.13
2023-04-14T22:46:41.892Z,19.11
2023-04-14T22:49:44.187Z,19.14
2023-04-14T22:52:47.031Z,19.08
2023-04-14T22:55:49.170Z,19.02
2023-04-14T22:58:51.290Z,19.03
2023-04-14T23:01:53.712Z,19.02
2023-04-14T23:04:55.835Z,18.97
2023-04-14T23:07:58.512Z,18.95
2023-04-14T23:11:00.706Z,18.87
2023-04-14T23:14:03.839Z,18.88
2023-04-14T23:17:05.949Z,18.86
2023-04-14T23:20:09.261Z,18.78
2023-04-14T23:23:12.469Z,18.74
2023-04-14T23:26:14.719Z,18.76
2023-04-14T23:29:18.395Z,18.67
2023-04-14T23:32:20.527Z,18.66
2023-04-14T23:35:22.625Z,18.67
2023-04-14T23:38:27.011Z,18.56
2023-04-14T23:41:29.481Z,18.52
2023-04-14T23:44:32.243Z,18.54
2023-04-14T23:47:34.354Z,18.56
2023-04-14T23:50:58.921Z,18.53
2023-04-14T23:54:02.246Z,18.51
2023-04-14T23:57:04.673Z,18.55
